createdAt,value
2018-07-19T00:01:34.112Z,2.53
2018-07-19T00:04:02.393Z,2.27
2018-07-19T00:06:30.718Z,2.27
2018-07-19T00:08:59.078Z,2.77
2018-07-19T00:11:28.441Z,2.07
2018-07-19T00:13:56.748Z,1.67
2018-07-19T00:16:25.065Z,2.30
2018-07-19T00:18:53.382Z,2.40
2018-07-19T00:21:21.668Z,2.70
2018-07-19T00:23:49.977Z,2.23
2018-07-19T00:26:18.257Z,1.97
2018-07-19T00:28:46.680Z,2.70
2018-07-19T00:31:14.949Z,1.83
2018-07-19T00:33:43.277Z,2.73
2018-07-19T00:36:12.700Z,2.57
2018-07-19T00:38:41.122Z,2.47
2018-07-19T00:41:09.433Z,1.70
2018-07-19T00:43:37.890Z,1.73
2018-07-19T00:46:06.166Z,2.37
2018-07-19T00:48:34.552Z,1.87
2018-07-19T00:51:02.849Z,1.97
2018-07-19T00:53:31.181Z,2.13
2018-07-19T00:55:59.496Z,2.50
2018-07-19T00:58:27.905Z,1.93
2018-07-19T01:00:56.176Z,1.37
2018-07-19T01:03:24.478Z,2.00
2018-07-19T01:05:52.769Z,1.67
2018-07-19T01:08:21.034Z,2.00
2018-07-19T01:10:49.328Z,1.90
2018-07-19T01:13:17.613Z,1.50
2018-07-19T01:15:46.043Z,2.30
2018-07-19T01:18:14.333Z,2.50
2018-07-19T01:20:42.632Z,2.17
2018-07-19T01:23:11.196Z,2.13
2018-07-19T01:25:39.528Z,2.67
2018-07-19T01:28:07.819Z,2.03
2018-07-19T01:30:36.160Z,2.17
2018-07-19T01:33:04.445Z,2.80
2018-07-19T01:35:32.817Z,3.00
2018-07-19T01:38:01.092Z,2.17
2018-07-19T01:40:29.397Z,1.90
2018-07-19T01:42:57.670Z,2.60
2018-07-19T01:45:26.009Z,3.20
2018-07-19T01:47:54.345Z,3.07
2018-07-19T01:50:22.691Z,2.27
2018-07-19T01:52:50.964Z,2.30
2018-07-19T01:55:19.256Z,2.40
2018-07-19T01:57:47.550Z,2.70
2018-07-19T02:00:15.883Z,2.80
2018-07-19T02:02:44.121Z,3.50
2018-07-19T02:05:12.409Z,3.00
2018-07-19T02:07:40.698Z,3.67
2018-07-19T02:10:09.001Z,3.00
2018-07-19T02:12:37.440Z,2.37
2018-07-19T02:15:06.611Z,3.30
2018-07-19T02:17:34.945Z,3.23
2018-07-19T02:20:03.232Z,3.40
2018-07-19T02:22:31.573Z,4.17
2018-07-19T02:24:59.848Z,3.73
2018-07-19T02:27:28.151Z,4.03
2018-07-19T02:29:56.430Z,3.03
2018-07-19T02:32:24.732Z,3.77
2018-07-19T02:34:53.023Z,3.70
2018-07-19T02:37:21.504Z,3.53
2018-07-19T02:39:49.776Z,3.30
2018-07-19T02:42:18.088Z,3.80
2018-07-19T02:44:46.369Z,3.40
2018-07-19T02:47:14.657Z,3.10
2018-07-19T02:49:42.929Z,3.83
2018-07-19T02:52:11.209Z,3.77
2018-07-19T02:54:39.516Z,5.00
2018-07-19T02:57:08.092Z,4.20
2018-07-19T02:59:36.380Z,3.23
2018-07-19T03:02:04.818Z,3.50
2018-07-19T03:04:33.040Z,3.40
2018-07-19T03:07:01.425Z,4.27
2018-07-19T03:09:29.706Z,4.07
2018-07-19T03:11:57.964Z,4.17
2018-07-19T03:14:26.384Z,3.77
2018-07-19T03:16:54.657Z,3.90
2018-07-19T03:19:22.930Z,3.93
2018-07-19T03:21:51.170Z,4.77
2018-07-19T03:24:19.484Z,4.40
2018-07-19T03:26:47.737Z,5.53
2018-07-19T03:29:16.029Z,4.13
2018-07-19T03:31:44.293Z,4.83
2018-07-19T03:34:12.568Z,4.50
2018-07-19T03:36:41.665Z,5.20
2018-07-19T03:39:10.921Z,4.50
2018-07-19T03:41:39.197Z,5.60
2018-07-19T03:44:07.655Z,5.20
2018-07-19T03:46:36.364Z,5.13
2018-07-19T03:49:04.613Z,6.10
2018-07-19T03:51:32.902Z,5.30
2018-07-19T03:54:01.165Z,5.77
2018-07-19T03:56:29.449Z,5.57
2018-07-19T03:58:57.704Z,6.47
2018-07-19T04:01:25.981Z,5.43
2018-07-19T04:03:54.229Z,5.47
2018-07-19T04:06:22.512Z,5.27
2018-07-19T04:08:50.768Z,7.17
2018-07-19T04:11:19.055Z,6.40
2018-07-19T04:13:47.309Z,5.57
2018-07-19T04:16:15.633Z,5.77
2018-07-19T04:18:43.892Z,7.30
2018-07-19T04:21:12.180Z,6.73
2018-07-19T04:23:40.416Z,7.30
2018-07-19T04:26:08.709Z,6.53
2018-07-19T04:28:36.976Z,7.03
2018-07-19T04:31:05.257Z,6.40
2018-07-19T04:33:33.552Z,6.67
2018-07-19T04:36:01.801Z,6.00
2018-07-19T04:38:30.076Z,5.93
2018-07-19T04:40:58.577Z,5.80
2018-07-19T04:43:26.847Z,5.90
2018-07-19T04:45:55.105Z,6.37
2018-07-19T04:48:23.405Z,6.60
2018-07-19T04:50:51.636Z,5.13
2018-07-19T04:53:19.936Z,6.97
2018-07-19T04:55:48.216Z,7.73
2018-07-19T04:58:16.492Z,5.77
2018-07-19T05:00:44.733Z,6.30
2018-07-19T05:03:13.040Z,5.90
2018-07-19T05:05:41.300Z,7.33
2018-07-19T05:08:09.594Z,7.60
2018-07-19T05:10:37.856Z,7.03
2018-07-19T05:13:06.189Z,6.90
2018-07-19T05:15:34.524Z,5.97
2018-07-19T05:18:03.085Z,6.07
2018-07-19T05:20:31.373Z,6.60
2018-07-19T05:23:00.766Z,6.53
2018-07-19T05:25:29.031Z,6.23
2018-07-19T05:27:57.304Z,7.13
2018-07-19T05:30:25.604Z,6.10
2018-07-19T05:32:53.917Z,6.03
2018-07-19T05:35:22.651Z,5.80
2018-07-19T05:37:50.932Z,5.50
